Dell, Montana
Current Conditions -  °F | °C
As of 2:53 AM on Tuesday 21 Oct 2014 (Local Time) from KDLN Reporting Station
Few Clouds Few Clouds  
Wind Chill: 50°   Ceiling: Unl
Heat Index: 50°   Visibility: 10mi
Dew Point: 33°   Wind: 5mph
Humidity: 52%   Direction: 350°N
Pressure: 29.8"   Gusts: NA
Location:  44.73°N, 112.7°W
Report Text: KDLN 210853Z AUTO 35004KT 10SM FEW110 10/01 A2980 RMK AO2 SLP043 T01000006 55007
Loading
Personal Weather Stations






























Interactive Weather Map
Tropical Storm Tracking
New forecast layout! Learn more

10-Day Weather Forecast

Advertisements
Track Severe Weather on mobile